Time;durP1;ratioP1;P1;durP2;ratioP2;P2;SDS_P1;SDS_P2;PMS_P1;PMS_P2;Temp;Humidity;BMP_temperature;BMP_pressure;BME280_temperature;BME280_humidity;BME280_pressure;Samples;Min_cycle;Max_cycle;Signal;HPM_P1;HPM_P2
2021/06/14 00:01:53;;;;;;;9.30;3.50;;;17.60;48.00;;;;;;5010875;28;20476;-45
2021/06/14 00:04:19;;;;;;;10.27;3.25;;;17.60;48.00;;;;;;4979180;28;20064;-46
2021/06/14 00:06:45;;;;;;;10.02;3.22;;;17.60;48.10;;;;;;5011217;28;20025;-47
2021/06/14 00:09:14;;;;;;;11.95;3.35;;;17.60;48.30;;;;;;5011010;28;20385;-47
2021/06/14 00:11:40;;;;;;;10.32;3.55;;;17.60;48.40;;;;;;5011384;28;20025;-52
2021/06/14 00:14:06;;;;;;;6.15;3.15;;;17.60;48.60;;;;;;5009071;28;20428;-46
2021/06/14 00:16:31;;;;;;;9.13;2.95;;;17.60;48.30;;;;;;4977850;28;20548;-45
2021/06/14 00:18:57;;;;;;;8.32;3.45;;;17.60;48.40;;;;;;5010607;28;20034;-45
2021/06/14 00:21:25;;;;;;;12.57;3.33;;;17.60;48.30;;;;;;4994963;28;20032;-47
2021/06/14 00:23:50;;;;;;;7.68;2.72;;;17.50;48.50;;;;;;5010244;28;20057;-46
2021/06/14 00:26:16;;;;;;;8.38;3.22;;;17.60;48.50;;;;;;5011116;28;20510;-44
2021/06/14 00:28:42;;;;;;;7.35;3.10;;;17.70;48.40;;;;;;5010623;28;20480;-48
2021/06/14 00:31:09;;;;;;;9.77;3.05;;;17.70;48.30;;;;;;5011379;28;20033;-48
2021/06/14 00:33:37;;;;;;;5.55;2.90;;;17.80;48.20;;;;;;4993707;28;20022;-46
2021/06/14 00:36:04;;;;;;;9.35;2.88;;;17.80;47.90;;;;;;5010628;28;20483;-47
2021/06/14 00:38:29;;;;;;;7.32;3.25;;;17.90;47.70;;;;;;5010901;28;20441;-48
2021/06/14 00:40:55;;;;;;;8.32;2.90;;;17.90;47.50;;;;;;4992597;28;20504;-46
2021/06/14 00:43:21;;;;;;;11.00;3.05;;;18.00;47.30;;;;;;5012466;28;20050;-47
2021/06/14 00:45:52;;;;;;;11.50;3.15;;;17.90;47.20;;;;;;5010211;28;20366;-49
2021/06/14 00:48:18;;;;;;;7.97;2.97;;;17.90;47.00;;;;;;5010901;28;20038;-47
2021/06/14 00:50:58;;;;;;;7.60;3.08;;;17.90;46.80;;;;;;5010541;28;20022;-45
2021/06/14 00:53:30;;;;;;;10.20;2.65;;;17.80;47.00;;;;;;4993217;28;20125;-49
2021/06/14 00:55:58;;;;;;;9.60;3.05;;;17.70;47.10;;;;;;5011467;28;20516;-47
2021/06/14 00:58:24;;;;;;;8.05;2.88;;;17.70;47.10;;;;;;5010326;28;20476;-49
2021/06/14 01:00:50;;;;;;;6.47;2.72;;;17.70;47.40;;;;;;4992545;28;20026;-48
2021/06/14 01:03:17;;;;;;;9.32;2.92;;;17.70;47.30;;;;;;5010243;28;20038;-51
2021/06/14 01:05:48;;;;;;;10.70;2.72;;;17.60;47.60;;;;;;5011930;28;20033;-48
2021/06/14 01:08:14;;;;;;;8.75;2.95;;;17.50;47.50;;;;;;4993770;28;20034;-45
2021/06/14 01:10:42;;;;;;;7.88;2.97;;;17.50;47.40;;;;;;5010457;28;20376;-46
2021/06/14 01:13:31;;;;;;;9.43;2.80;;;17.50;47.00;;;;;;4976268;28;20756;-46
2021/06/14 01:16:25;;;;;;;6.47;2.60;;;17.50;47.10;;;;;;4992342;28;20026;-46
2021/06/14 01:19:16;;;;;;;8.00;2.50;;;17.40;47.20;;;;;;4992384;28;20034;-45
2021/06/14 01:22:06;;;;;;;6.97;3.00;;;17.40;47.30;;;;;;4994133;28;20034;-45
2021/06/14 01:24:50;;;;;;;6.50;2.70;;;17.40;47.30;;;;;;5012251;28;20022;-46
2021/06/14 01:27:45;;;;;;;10.98;3.13;;;17.30;47.70;;;;;;5012192;28;20026;-45
2021/06/14 01:30:16;;;;;;;10.32;2.95;;;17.30;47.80;;;;;;4994213;28;20153;-45
2021/06/14 01:32:43;;;;;;;7.10;2.90;;;17.20;47.90;;;;;;4994443;28;20047;-45
2021/06/14 01:35:11;;;;;;;7.82;3.33;;;17.20;48.30;;;;;;4993721;28;20026;-45
2021/06/14 01:37:48;;;;;;;9.88;2.72;;;17.20;48.60;;;;;;5011826;28;20072;-46
2021/06/14 01:40:17;;;;;;;8.10;3.45;;;17.10;49.10;;;;;;5012031;28;20038;-47
2021/06/14 01:42:46;;;;;;;12.55;3.42;;;17.00;49.40;;;;;;5012154;28;20042;-45
2021/06/14 01:45:12;;;;;;;6.93;3.20;;;17.00;49.80;;;;;;4978171;28;20037;-45
2021/06/14 01:47:39;;;;;;;8.57;3.38;;;17.00;49.90;;;;;;5012015;28;20153;-48
2021/06/14 01:50:05;;;;;;;9.48;3.45;;;17.00;50.00;;;;;;5011226;28;20143;-44
2021/06/14 01:52:31;;;;;;;7.35;2.97;;;17.00;50.10;;;;;;4994925;28;20057;-45
2021/06/14 01:54:58;;;;;;;7.78;3.53;;;16.90;50.10;;;;;;5011900;28;20025;-45
2021/06/14 01:57:25;;;;;;;9.65;3.28;;;17.00;50.40;;;;;;5015792;28;20380;-46
2021/06/14 01:59:52;;;;;;;5.57;3.00;;;16.90;50.70;;;;;;4997628;28;20274;-44
2021/06/14 02:02:19;;;;;;;9.55;3.40;;;16.90;50.50;;;;;;5015431;28;20030;-44
2021/06/14 02:04:48;;;;;;;8.85;3.40;;;16.90;50.80;;;;;;4998160;28;20053;-45
2021/06/14 02:07:15;;;;;;;9.98;3.38;;;16.90;51.20;;;;;;5015182;28;20018;-47
2021/06/14 02:12:28;;;;;;;8.95;3.40;;;16.90;51.10;;;;;;5000858;28;20092;-48
2021/06/14 02:14:54;;;;;;;10.25;3.45;;;16.80;51.10;;;;;;4997482;28;20036;-46
2021/06/14 02:17:24;;;;;;;9.48;3.78;;;16.80;51.40;;;;;;4998057;28;20076;-47
2021/06/14 02:19:51;;;;;;;9.77;3.30;;;16.80;51.50;;;;;;5015086;28;20030;-48
2021/06/14 02:22:19;;;;;;;7.45;3.25;;;16.80;51.70;;;;;;4998108;28;20129;-45
2021/06/14 02:24:45;;;;;;;10.38;3.58;;;16.70;51.70;;;;;;4997830;28;20037;-45
2021/06/14 02:27:12;;;;;;;7.70;3.50;;;16.70;52.40;;;;;;5014484;28;20300;-48
2021/06/14 02:29:38;;;;;;;7.50;3.47;;;16.80;51.90;;;;;;4997647;28;20034;-46
2021/06/14 02:32:05;;;;;;;10.05;3.17;;;16.70;52.60;;;;;;5014403;28;20092;-47
2021/06/14 02:34:32;;;;;;;8.13;3.60;;;16.70;52.10;;;;;;5014753;28;20021;-44
2021/06/14 02:36:59;;;;;;;7.55;3.25;;;16.60;52.10;;;;;;5014297;28;20026;-45
2021/06/14 02:39:28;;;;;;;9.50;3.20;;;16.60;52.60;;;;;;5014995;28;20030;-45
2021/06/14 02:41:54;;;;;;;8.80;3.40;;;16.50;52.70;;;;;;5013853;28;20104;-46
2021/06/14 02:44:23;;;;;;;9.43;3.75;;;16.50;52.80;;;;;;4997299;28;20075;-45
2021/06/14 02:46:49;;;;;;;12.80;3.78;;;16.60;52.40;;;;;;5014783;28;20036;-44
2021/06/14 02:49:16;;;;;;;11.90;4.03;;;16.50;52.50;;;;;;5014076;28;20034;-45
2021/06/14 02:51:42;;;;;;;9.60;3.60;;;16.50;52.90;;;;;;5015201;28;20034;-46
2021/06/14 02:54:17;;;;;;;9.75;3.78;;;16.50;53.00;;;;;;5014173;28;20033;-47
2021/06/14 02:56:46;;;;;;;9.30;3.88;;;16.50;52.90;;;;;;4998352;28;20026;-46
2021/06/14 02:59:14;;;;;;;12.38;3.72;;;16.50;53.00;;;;;;5014324;28;20029;-45
2021/06/14 03:01:44;;;;;;;8.73;3.47;;;16.40;53.10;;;;;;5014377;28;20113;-44
2021/06/14 03:04:10;;;;;;;13.88;3.70;;;16.50;52.90;;;;;;5014258;28;20135;-46
2021/06/14 03:06:36;;;;;;;7.45;3.17;;;16.50;53.20;;;;;;5013158;28;20072;-48
2021/06/14 03:09:05;;;;;;;9.93;3.60;;;16.50;53.40;;;;;;5013451;28;20042;-47
2021/06/14 03:11:31;;;;;;;11.77;3.75;;;16.40;53.50;;;;;;5014139;28;20026;-46
2021/06/14 03:13:58;;;;;;;8.38;3.55;;;16.40;53.60;;;;;;5013675;28;20033;-49
2021/06/14 03:16:26;;;;;;;9.25;3.58;;;16.40;53.40;;;;;;4997145;28;20073;-48
2021/06/14 03:18:53;;;;;;;7.50;3.47;;;16.40;53.40;;;;;;4997178;28;20354;-45
2021/06/14 03:21:23;;;;;;;9.55;3.22;;;16.40;53.30;;;;;;4996444;28;20045;-45
2021/06/14 03:23:51;;;;;;;6.50;3.45;;;16.50;53.20;;;;;;5014382;28;20033;-47
2021/06/14 03:26:19;;;;;;;8.15;3.78;;;16.50;53.00;;;;;;4996304;28;20033;-48
2021/06/14 03:28:46;;;;;;;10.73;3.50;;;16.60;53.00;;;;;;4996452;28;20535;-49
2021/06/14 03:31:14;;;;;;;8.10;3.47;;;16.60;53.10;;;;;;5013569;28;20065;-45
2021/06/14 03:33:45;;;;;;;8.13;3.45;;;16.60;53.10;;;;;;4996412;28;20500;-48
2021/06/14 03:36:13;;;;;;;8.90;3.88;;;16.60;52.80;;;;;;5013130;28;20026;-46
2021/06/14 03:38:41;;;;;;;12.50;4.03;;;16.70;52.70;;;;;;4980057;28;20034;-48
2021/06/14 03:41:07;;;;;;;9.95;3.85;;;16.70;52.80;;;;;;4995717;28;20041;-48
2021/06/14 03:43:33;;;;;;;10.95;3.35;;;16.60;52.90;;;;;;5013327;28;20058;-50
2021/06/14 03:46:00;;;;;;;9.27;3.45;;;16.70;52.90;;;;;;5013437;28;20369;-56
2021/06/14 03:48:26;;;;;;;12.57;3.80;;;16.70;52.70;;;;;;5013521;28;20128;-49
2021/06/14 03:50:54;;;;;;;8.20;3.47;;;16.70;52.60;;;;;;4996171;28;20132;-48
2021/06/14 03:53:27;;;;;;;11.07;4.40;;;16.70;52.70;;;;;;5012879;28;20041;-45
2021/06/14 03:55:53;;;;;;;10.68;3.80;;;16.70;52.80;;;;;;5013696;28;20033;-45
2021/06/14 03:58:19;;;;;;;9.02;3.88;;;16.80;52.60;;;;;;5013261;28;20067;-46
2021/06/14 04:00:45;;;;;;;9.25;3.78;;;16.80;52.50;;;;;;4995942;28;20450;-47
2021/06/14 04:03:10;;;;;;;10.48;3.60;;;16.90;52.30;;;;;;4979142;28;20030;-49
2021/06/14 04:05:36;;;;;;;9.40;4.03;;;16.90;52.30;;;;;;4995528;28;20025;-49
2021/06/14 04:08:02;;;;;;;8.90;3.80;;;17.00;52.10;;;;;;5012526;28;20101;-44
2021/06/14 04:10:28;;;;;;;12.35;4.30;;;17.00;52.10;;;;;;4995792;28;20030;-47
2021/06/14 04:13:12;;;;;;;8.35;3.70;;;17.00;52.00;;;;;;4995745;28;20029;-47
2021/06/14 04:15:38;;;;;;;9.93;3.85;;;17.00;52.20;;;;;;5013126;28;20029;-45
2021/06/14 04:18:04;;;;;;;8.60;3.83;;;17.00;51.90;;;;;;5012080;28;20049;-45
2021/06/14 04:20:30;;;;;;;8.27;3.60;;;17.00;51.90;;;;;;5013230;28;20033;-46
2021/06/14 04:22:57;;;;;;;8.77;3.60;;;17.10;51.70;;;;;;5013188;28;20029;-47
2021/06/14 04:25:23;;;;;;;8.95;3.80;;;17.10;51.80;;;;;;5013048;28;20167;-45
2021/06/14 04:27:49;;;;;;;12.60;3.58;;;17.10;51.70;;;;;;5012859;28;20485;-47
2021/06/14 04:30:16;;;;;;;13.48;5.03;;;17.10;51.80;;;;;;4995041;28;20105;-48
2021/06/14 04:32:43;;;;;;;9.50;4.00;;;17.10;51.80;;;;;;4995259;28;20041;-47
2021/06/14 04:35:10;;;;;;;12.32;4.40;;;17.20;51.80;;;;;;5011975;28;20389;-49
2021/06/14 04:37:36;;;;;;;11.45;4.20;;;17.20;51.60;;;;;;5012911;28;20077;-45
2021/06/14 04:40:02;;;;;;;13.70;4.50;;;17.20;51.50;;;;;;4994458;28;20436;-49
2021/06/14 04:42:28;;;;;;;10.52;4.18;;;17.30;51.60;;;;;;5012524;28;20052;-50
2021/06/14 04:44:54;;;;;;;9.80;3.88;;;17.30;51.70;;;;;;5012622;28;20030;-46
2021/06/14 04:47:20;;;;;;;10.23;4.63;;;17.40;51.60;;;;;;4994622;28;20185;-50
2021/06/14 04:49:47;;;;;;;11.75;4.70;;;17.40;51.40;;;;;;4995032;28;20133;-48
2021/06/14 04:52:13;;;;;;;9.70;4.13;;;17.50;51.30;;;;;;5012002;28;20025;-49
2021/06/14 04:54:39;;;;;;;20.63;4.50;;;17.60;51.10;;;;;;4995063;28;20061;-47
2021/06/14 04:57:05;;;;;;;9.05;4.35;;;17.70;50.80;;;;;;5011843;28;20024;-46
2021/06/14 04:59:31;;;;;;;9.52;3.95;;;17.80;50.50;;;;;;5012429;28;20045;-48
2021/06/14 05:01:57;;;;;;;11.70;4.78;;;17.90;50.40;;;;;;4994762;28;20102;-45
2021/06/14 05:04:23;;;;;;;12.55;4.10;;;17.90;50.20;;;;;;5011742;28;20061;-49
2021/06/14 05:06:49;;;;;;;9.77;3.85;;;18.00;50.20;;;;;;5011798;28;20495;-47
2021/06/14 05:09:15;;;;;;;10.98;3.97;;;18.00;50.10;;;;;;5011296;28;20503;-47
2021/06/14 05:11:40;;;;;;;18.85;4.63;;;18.10;50.00;;;;;;4994886;28;20063;-47
2021/06/14 05:14:06;;;;;;;15.30;4.72;;;18.10;49.70;;;;;;4994108;28;20029;-48
2021/06/14 05:16:32;;;;;;;15.13;4.65;;;18.20;49.70;;;;;;4994771;28;20069;-49
2021/06/14 05:18:58;;;;;;;12.55;4.47;;;18.20;49.60;;;;;;5012172;28;20049;-50
2021/06/14 05:21:25;;;;;;;13.48;3.92;;;18.20;49.60;;;;;;4994272;28;20417;-49
2021/06/14 05:23:51;;;;;;;15.02;4.20;;;18.20;49.50;;;;;;5011999;28;20026;-47
2021/06/14 05:26:17;;;;;;;18.27;4.60;;;18.30;49.40;;;;;;5011547;28;20026;-45
2021/06/14 05:28:43;;;;;;;14.35;4.88;;;18.30;49.50;;;;;;5011929;28;20038;-48
2021/06/14 05:31:10;;;;;;;12.00;3.85;;;18.40;49.40;;;;;;4996547;28;20141;-47
2021/06/14 05:33:37;;;;;;;20.50;5.25;;;18.50;49.30;;;;;;4998389;28;20030;-47
2021/06/14 05:36:03;;;;;;;15.55;4.53;;;18.50;49.10;;;;;;5015820;28;20030;-46
2021/06/14 05:38:29;;;;;;;15.65;4.75;;;18.60;48.90;;;;;;5016202;28;20103;-50
2021/06/14 05:40:55;;;;;;;30.77;5.43;;;18.60;48.60;;;;;;4998400;28;20465;-50
2021/06/14 05:43:21;;;;;;;25.50;4.75;;;18.70;48.50;;;;;;4997849;28;20092;-53
2021/06/14 05:45:47;;;;;;;23.83;4.85;;;18.80;47.60;;;;;;4998518;28;20049;-51
2021/06/14 05:48:13;;;;;;;23.25;5.32;;;18.80;47.30;;;;;;4997741;28;20081;-47
2021/06/14 05:50:39;;;;;;;13.60;5.50;;;18.90;47.20;;;;;;5016261;28;20109;-48
2021/06/14 05:53:05;;;;;;;28.70;4.88;;;19.00;47.00;;;;;;4997885;28;20117;-50
2021/06/14 05:55:31;;;;;;;33.33;5.90;;;19.00;46.70;;;;;;4981914;28;20107;-49
2021/06/14 05:57:57;;;;;;;27.23;4.55;;;19.20;46.40;;;;;;5015775;28;20121;-54
2021/06/14 06:00:23;;;;;;;38.95;5.30;;;19.20;46.20;;;;;;4997598;28;20026;-45
2021/06/14 06:02:49;;;;;;;24.95;5.25;;;19.30;45.90;;;;;;4998102;28;20036;-50
2021/06/14 06:05:15;;;;;;;38.17;5.95;;;19.30;45.60;;;;;;5014808;28;20109;-48
2021/06/14 06:07:41;;;;;;;28.77;6.15;;;19.40;45.30;;;;;;5015258;28;20030;-48
2021/06/14 06:10:09;;;;;;;39.92;6.35;;;19.40;45.20;;;;;;5014436;28;20037;-49
2021/06/14 06:12:36;;;;;;;51.63;6.53;;;19.50;45.20;;;;;;4997683;28;20030;-46
2021/06/14 06:15:09;;;;;;;50.40;6.40;;;19.50;45.10;;;;;;4997087;28;20044;-46
2021/06/14 06:17:36;;;;;;;40.15;6.70;;;19.60;45.00;;;;;;5015357;28;20026;-50
2021/06/14 06:20:08;;;;;;;28.02;5.60;;;19.60;44.50;;;;;;4997150;28;20030;-47
2021/06/14 06:22:35;;;;;;;75.82;7.93;;;19.60;44.30;;;;;;4997426;28;20030;-50
2021/06/14 06:25:07;;;;;;;56.72;6.68;;;19.70;44.00;;;;;;4996648;28;20029;-50
2021/06/14 06:27:33;;;;;;;35.22;7.03;;;19.80;44.00;;;;;;4997774;28;20029;-48
2021/06/14 06:29:59;;;;;;;31.50;6.22;;;19.90;43.60;;;;;;4997427;28;20034;-47
2021/06/14 06:32:25;;;;;;;23.30;5.25;;;19.90;43.30;;;;;;5013922;28;20385;-47
2021/06/14 06:34:51;;;;;;;15.25;5.30;;;19.90;43.20;;;;;;4997281;28;20026;-47
2021/06/14 06:37:16;;;;;;;16.20;5.00;;;20.00;43.20;;;;;;5014184;28;20536;-50
2021/06/14 06:39:43;;;;;;;18.77;5.28;;;20.10;42.90;;;;;;4996382;28;20042;-52
2021/06/14 06:42:08;;;;;;;20.70;5.25;;;20.20;42.60;;;;;;4995520;28;20081;-47
2021/06/14 06:44:53;;;;;;;18.77;4.88;;;20.30;41.80;;;;;;4996819;28;20148;-47
2021/06/14 06:47:19;;;;;;;39.00;5.68;;;20.40;41.80;;;;;;4996367;28;20025;-47
2021/06/14 06:49:45;;;;;;;36.13;6.13;;;20.60;41.60;;;;;;5014401;28;20125;-45
2021/06/14 06:52:11;;;;;;;17.13;4.93;;;22.10;40.80;;;;;;5013992;28;20477;-50
2021/06/14 06:54:37;;;;;;;42.70;6.70;;;26.50;35.50;;;;;;5014493;28;20025;-48
2021/06/14 06:57:04;;;;;;;38.50;5.78;;;29.80;29.90;;;;;;5014442;28;20029;-52
2021/06/14 06:59:29;;;;;;;22.42;4.97;;;32.50;27.40;;;;;;4996563;28;20506;-49
2021/06/14 07:01:55;;;;;;;18.27;4.90;;;34.10;26.40;;;;;;5014236;28;20021;-51
2021/06/14 07:04:21;;;;;;;21.48;4.55;;;36.60;25.30;;;;;;4996044;28;20104;-51
2021/06/14 07:06:47;;;;;;;22.35;4.50;;;38.40;23.70;;;;;;5014341;28;20053;-50
2021/06/14 07:09:13;;;;;;;13.88;4.45;;;39.50;22.70;;;;;;5013782;28;20477;-49
2021/06/14 07:11:40;;;;;;;13.32;4.40;;;40.90;21.90;;;;;;4996527;28;20033;-53
2021/06/14 07:14:06;;;;;;;14.70;4.40;;;41.80;21.40;;;;;;5013648;28;20049;-49
2021/06/14 07:16:33;;;;;;;56.80;6.60;;;42.90;21.00;;;;;;5012778;28;20457;-48
2021/06/14 07:19:01;;;;;;;26.38;5.47;;;43.40;20.50;;;;;;5014000;28;20152;-45
2021/06/14 07:21:28;;;;;;;18.95;5.13;;;43.70;20.20;;;;;;4995994;28;20542;-49
2021/06/14 07:23:53;;;;;;;18.73;4.38;;;44.00;20.00;;;;;;5013689;28;20038;-51
2021/06/14 07:26:20;;;;;;;17.58;4.85;;;44.70;19.90;;;;;;4997990;28;20033;-50
2021/06/14 07:28:47;;;;;;;13.75;3.92;;;45.70;19.40;;;;;;5014336;28;20041;-49
2021/06/14 07:31:14;;;;;;;14.57;4.10;;;46.40;19.00;;;;;;4979498;28;20026;-47
2021/06/14 07:33:41;;;;;;;17.65;4.57;;;46.90;18.80;;;;;;5013380;28;20560;-50
2021/06/14 07:36:09;;;;;;;31.77;5.70;;;46.50;18.80;;;;;;4995565;28;20040;-46
2021/06/14 07:38:35;;;;;;;11.20;3.50;;;44.90;19.50;;;;;;5013404;28;20025;-49
2021/06/14 07:41:02;;;;;;;8.82;4.15;;;42.30;19.40;;;;;;4995954;28;20034;-50
2021/06/14 07:43:47;;;;;;;7.22;4.25;;;40.00;20.60;;;;;;5012802;28;20104;-48
2021/06/14 07:46:13;;;;;;;12.52;4.57;;;41.10;20.70;;;;;;5013215;28;20033;-52
2021/06/14 07:48:38;;;;;;;10.63;4.80;;;43.10;20.20;;;;;;5013177;28;20428;-47
2021/06/14 07:51:23;;;;;;;19.90;6.13;;;43.40;20.10;;;;;;4995884;28;20060;-51
2021/06/14 07:53:50;;;;;;;7.82;3.50;;;44.10;19.80;;;;;;5012849;28;20045;-51
2021/06/14 07:56:18;;;;;;;12.65;4.90;;;45.60;19.00;;;;;;5012709;28;20030;-52
2021/06/14 07:58:45;;;;;;;18.38;5.45;;;44.90;19.00;;;;;;4995616;28;20076;-50
2021/06/14 08:01:12;;;;;;;12.07;4.88;;;45.60;18.80;;;;;;4995427;28;20030;-49
2021/06/14 08:03:38;;;;;;;9.82;4.15;;;46.50;18.60;;;;;;4995784;28;20116;-49
2021/06/14 08:06:05;;;;;;;8.48;4.18;;;47.20;18.30;;;;;;4995782;28;20080;-53
2021/06/14 08:08:31;;;;;;;20.02;4.65;;;47.70;18.00;;;;;;5012526;28;20231;-53
2021/06/14 08:10:58;;;;;;;5.80;4.03;;;48.50;17.90;;;;;;5012656;28;20022;-51
2021/06/14 08:13:24;;;;;;;12.00;4.38;;;49.00;17.60;;;;;;4995008;28;20113;-51
2021/06/14 08:15:51;;;;;;;7.88;4.88;;;49.30;17.50;;;;;;5012786;28;20038;-51
2021/06/14 08:21:18;;;;;;;29.35;5.82;;;49.10;17.50;;;;;;5012139;28;20037;-49
2021/06/14 08:26:30;;;;;;;7.90;4.35;;;49.00;17.30;;;;;;5012179;28;20037;-50
2021/06/14 08:28:57;;;;;;;13.23;4.60;;;49.10;17.20;;;;;;5012540;28;20283;-49
2021/06/14 08:31:26;;;;;;;9.23;4.78;;;49.80;17.10;;;;;;5010600;28;20025;-51
2021/06/14 08:33:52;;;;;;;6.93;4.28;;;50.10;16.90;;;;;;5012357;28;20026;-48
2021/06/14 08:36:20;;;;;;;10.48;5.18;;;50.60;16.90;;;;;;5011991;28;20161;-52
2021/06/14 08:38:47;;;;;;;6.90;4.40;;;50.80;16.80;;;;;;5012464;28;20042;-50
2021/06/14 08:41:20;;;;;;;14.27;4.65;;;49.80;16.80;;;;;;5011202;28;20099;-53
2021/06/14 08:43:51;;;;;;;18.00;5.22;;;49.80;16.90;;;;;;5011864;28;20084;-52
2021/06/14 08:46:17;;;;;;;8.70;5.47;;;49.60;16.90;;;;;;5011295;28;20101;-52
2021/06/14 08:48:44;;;;;;;8.93;3.70;;;49.70;17.00;;;;;;5012026;28;20038;-52
2021/06/14 08:51:11;;;;;;;7.75;4.80;;;49.70;17.00;;;;;;5012431;28;20503;-53
2021/06/14 08:53:38;;;;;;;7.50;3.63;;;49.30;17.10;;;;;;5010945;28;20117;-51
2021/06/14 08:56:05;;;;;;;10.93;3.83;;;46.90;17.10;;;;;;4993949;28;20088;-51
2021/06/14 08:58:33;;;;;;;14.60;5.57;;;44.40;17.70;;;;;;5011704;28;20065;-46
2021/06/14 09:01:00;;;;;;;7.75;3.90;;;43.10;18.60;;;;;;4993865;28;20473;-52
2021/06/14 09:03:27;;;;;;;7.65;3.97;;;43.40;18.50;;;;;;4992929;28;20076;-50
2021/06/14 09:05:54;;;;;;;13.20;5.25;;;42.20;18.60;;;;;;4994646;28;20105;-51
2021/06/14 09:08:24;;;;;;;12.88;4.05;;;40.30;19.40;;;;;;4993831;28;20057;-53
2021/06/14 09:10:51;;;;;;;15.80;5.40;;;41.30;19.70;;;;;;4994168;28;20520;-50
2021/06/14 09:13:22;;;;;;;13.25;5.90;;;40.70;19.40;;;;;;4992050;28;20034;-50
2021/06/14 09:15:53;;;;;;;8.65;4.00;;;39.60;20.00;;;;;;4994080;28;20365;-50
2021/06/14 09:18:25;;;;;;;8.82;4.65;;;40.80;19.60;;;;;;4993487;28;20057;-47
2021/06/14 09:21:09;;;;;;;65.47;8.70;;;41.10;19.60;;;;;;5010632;28;20041;-49
2021/06/14 09:23:52;;;;;;;162.35;13.93;;;39.50;19.70;;;;;;5010785;28;20288;-46
2021/06/14 09:26:26;;;;;;;;;;;37.00;20.60;;;;;;4992019;28;20026;-51
2021/06/14 09:28:54;;;;;;;61.83;8.00;;;34.50;22.00;;;;;;5011828;28;19912;-50
2021/06/14 09:31:20;;;;;;;11.60;4.15;;;32.90;23.10;;;;;;4993569;28;20040;-45
2021/06/14 09:33:47;;;;;;;43.25;7.10;;;32.10;23.60;;;;;;5011709;28;20026;-50
2021/06/14 09:36:16;;;;;;;64.30;8.48;;;31.40;24.30;;;;;;4993643;28;20033;-49
2021/06/14 09:38:42;;;;;;;107.88;9.90;;;31.00;24.60;;;;;;5011656;28;20045;-47
2021/06/14 09:41:17;;;;;;;50.08;6.20;;;30.50;25.00;;;;;;5010805;28;20429;-47
2021/06/14 09:43:47;;;;;;;35.33;6.03;;;30.20;25.30;;;;;;4993255;28;20054;-52
2021/06/14 09:46:26;;;;;;;53.13;6.78;;;29.70;25.40;;;;;;4993552;28;20097;-45
2021/06/14 09:48:52;;;;;;;35.22;6.10;;;29.40;26.10;;;;;;5011221;28;20029;-45
2021/06/14 09:51:19;;;;;;;38.67;6.68;;;29.20;26.40;;;;;;4993065;28;20060;-52
2021/06/14 09:53:50;;;;;;;28.45;6.03;;;29.00;26.50;;;;;;5011265;28;20026;-48
2021/06/14 09:56:36;;;;;;;10.60;4.35;;;28.80;26.70;;;;;;5011018;28;20044;-46
2021/06/14 09:59:04;;;;;;;119.75;9.85;;;28.40;27.20;;;;;;5011115;28;20521;-49
2021/06/14 10:01:35;;;;;;;32.53;5.93;;;27.90;27.80;;;;;;4991731;28;20480;-48
2021/06/14 10:04:10;;;;;;;96.63;11.50;;;27.70;28.60;;;;;;4993362;28;20022;-46
2021/06/14 10:06:58;;;;;;;35.92;5.63;;;27.50;28.60;;;;;;5009438;28;20324;-46
2021/06/14 10:09:24;;;;;;;10.07;4.18;;;27.40;28.60;;;;;;5010813;28;20492;-50
2021/06/14 10:11:52;;;;;;;18.02;4.95;;;27.40;28.70;;;;;;5009489;28;20444;-46
2021/06/14 10:14:21;;;;;;;16.17;5.03;;;27.50;28.70;;;;;;5010731;28;20088;-46
2021/06/14 10:16:49;;;;;;;12.63;4.60;;;27.70;28.10;;;;;;4995508;28;20033;-48
2021/06/14 10:19:17;;;;;;;29.83;4.90;;;27.80;28.10;;;;;;5010752;28;20030;-48
2021/06/14 10:21:43;;;;;;;129.25;12.98;;;27.80;27.80;;;;;;4994391;28;20400;-50
2021/06/14 10:24:14;;;;;;;82.88;10.32;;;27.80;27.70;;;;;;5012896;28;20061;-48
2021/06/14 10:26:46;;;;;;;33.00;8.55;;;27.40;27.90;;;;;;5013868;28;20037;-50
2021/06/14 10:29:15;;;;;;;25.63;10.60;;;27.20;28.20;;;;;;4995542;28;20049;-47
2021/06/14 10:31:46;;;;;;;16.55;6.15;;;27.00;28.80;;;;;;4994949;28;20489;-47
2021/06/14 10:34:14;;;;;;;11.00;4.38;;;26.80;29.30;;;;;;4997337;28;20030;-50
2021/06/14 10:36:54;;;;;;;8.68;3.92;;;26.60;29.30;;;;;;5013363;28;20526;-49
2021/06/14 10:39:24;;;;;;;10.15;4.20;;;26.70;29.00;;;;;;5012901;28;20038;-47
2021/06/14 10:41:50;;;;;;;10.45;4.72;;;26.80;28.80;;;;;;4996409;28;20036;-50
2021/06/14 10:44:16;;;;;;;12.30;4.70;;;26.50;29.20;;;;;;5013366;28;20050;-47
2021/06/14 10:46:44;;;;;;;7.65;4.10;;;26.70;29.40;;;;;;4995085;28;20026;-51
2021/06/14 10:49:12;;;;;;;10.52;4.35;;;26.70;29.40;;;;;;4996097;28;20046;-49
2021/06/14 10:51:40;;;;;;;10.13;4.20;;;26.70;29.50;;;;;;4995598;28;20026;-48
2021/06/14 10:54:12;;;;;;;9.70;4.20;;;26.70;29.40;;;;;;4991721;28;20041;-47
2021/06/14 10:56:40;;;;;;;14.10;5.28;;;26.70;29.30;;;;;;5011149;28;20026;-48
2021/06/14 10:59:10;;;;;;;6.65;3.92;;;26.80;29.50;;;;;;5012030;28;20125;-47
2021/06/14 11:01:39;;;;;;;5.85;4.10;;;27.00;29.40;;;;;;4995548;28;20049;-47
2021/06/14 11:04:06;;;;;;;11.90;4.15;;;27.00;29.10;;;;;;5011863;28;20166;-46
2021/06/14 11:06:35;;;;;;;10.13;4.38;;;27.20;29.20;;;;;;5012951;28;20022;-49
2021/06/14 11:09:07;;;;;;;8.73;4.18;;;27.20;29.00;;;;;;5010522;28;20044;-49
2021/06/14 11:11:59;;;;;;;8.48;3.70;;;27.10;28.70;;;;;;5013170;28;20080;-51
2021/06/14 11:14:44;;;;;;;16.85;5.53;;;27.30;28.90;;;;;;4994612;28;20038;-48
2021/06/14 11:17:15;;;;;;;18.70;10.02;;;27.50;28.80;;;;;;5013484;28;20121;-45
2021/06/14 11:19:41;;;;;;;15.30;5.32;;;27.70;28.70;;;;;;4988762;28;20034;-50
2021/06/14 11:22:07;;;;;;;10.20;4.88;;;27.80;28.60;;;;;;5011052;28;20560;-49
2021/06/14 11:24:39;;;;;;;9.85;3.83;;;27.80;28.80;;;;;;4986237;28;20297;-51
2021/06/14 11:27:09;;;;;;;14.50;6.28;;;27.60;28.30;;;;;;5010342;28;20049;-50
2021/06/14 11:29:44;;;;;;;15.63;6.85;;;27.50;28.20;;;;;;4991376;28;20100;-47
2021/06/14 11:32:17;;;;;;;11.82;6.93;;;27.30;28.10;;;;;;4994427;28;20057;-48
2021/06/14 11:34:46;;;;;;;18.00;7.63;;;27.10;28.30;;;;;;4991323;28;20038;-46
2021/06/14 11:37:17;;;;;;;22.83;5.53;;;26.70;29.10;;;;;;4995096;28;20030;-49
2021/06/14 11:39:46;;;;;;;15.77;5.03;;;26.60;29.50;;;;;;4994121;28;20320;-51
2021/06/14 11:42:19;;;;;;;12.95;4.50;;;26.30;29.70;;;;;;4994669;28;20030;-48
2021/06/14 11:44:54;;;;;;;14.82;4.75;;;26.30;29.70;;;;;;4993600;28;20030;-48
2021/06/14 11:47:26;;;;;;;13.85;4.55;;;26.50;29.60;;;;;;4993867;28;20029;-46
2021/06/14 11:49:54;;;;;;;10.52;4.30;;;26.60;29.10;;;;;;4992571;28;20026;-47
2021/06/14 11:52:36;;;;;;;7.90;3.92;;;26.60;29.10;;;;;;4995241;28;20033;-48
2021/06/14 11:55:12;;;;;;;14.20;4.93;;;26.80;29.30;;;;;;4996602;28;20022;-48
2021/06/14 11:57:41;;;;;;;16.38;4.50;;;26.70;29.10;;;;;;4994676;28;20026;-46
2021/06/14 12:00:12;;;;;;;17.08;4.82;;;26.20;29.10;;;;;;4990620;28;20477;-46
2021/06/14 12:02:38;;;;;;;12.27;5.05;;;26.10;29.50;;;;;;5011048;28;20030;-48
2021/06/14 12:05:08;;;;;;;12.85;4.80;;;26.30;29.40;;;;;;4992631;28;20685;-49
2021/06/14 12:07:39;;;;;;;11.20;4.75;;;26.40;29.40;;;;;;4992517;28;20030;-50
2021/06/14 12:10:07;;;;;;;11.00;4.70;;;26.40;29.20;;;;;;5011639;28;20026;-48
2021/06/14 12:12:35;;;;;;;8.50;4.40;;;26.50;28.80;;;;;;5010744;28;20105;-45
2021/06/14 12:15:01;;;;;;;11.60;4.95;;;26.50;28.70;;;;;;5010620;28;20041;-46
2021/06/14 12:17:32;;;;;;;12.13;4.10;;;26.40;28.90;;;;;;5009248;28;20029;-49
2021/06/14 12:22:44;;;;;;;16.13;4.80;;;26.10;29.50;;;;;;5009165;28;20041;-53
2021/06/14 12:25:13;;;;;;;61.25;7.78;;;26.20;29.70;;;;;;5011743;28;20034;-48
2021/06/14 12:27:39;;;;;;;18.20;5.60;;;26.40;29.40;;;;;;5010751;28;20437;-48
2021/06/14 12:30:11;;;;;;;12.70;4.30;;;26.50;29.30;;;;;;5010740;28;20038;-51
2021/06/14 12:32:39;;;;;;;20.83;4.85;;;26.50;28.90;;;;;;5011102;28;20033;-47
2021/06/14 12:35:09;;;;;;;9.57;5.85;;;26.50;28.60;;;;;;5011845;28;20026;-48
2021/06/14 12:37:35;;;;;;;11.50;6.40;;;26.50;28.70;;;;;;4993668;28;20018;-48
2021/06/14 12:40:15;;;;;;;27.38;9.77;;;26.70;28.70;;;;;;5009387;28;20034;-52
2021/06/14 12:42:41;;;;;;;14.98;5.75;;;26.90;28.80;;;;;;5011230;28;20053;-52
2021/06/14 12:45:10;;;;;;;11.68;5.30;;;26.90;28.30;;;;;;5009197;28;20136;-49
2021/06/14 12:47:55;;;;;;;17.70;6.75;;;26.90;28.50;;;;;;4992440;28;20068;-49
2021/06/14 12:50:31;;;;;;;13.50;7.05;;;26.90;28.30;;;;;;5010727;28;20108;-49
2021/06/14 12:53:00;;;;;;;10.80;7.68;;;27.10;28.40;;;;;;5009174;28;20037;-48
2021/06/14 12:55:28;;;;;;;14.75;4.95;;;27.20;28.30;;;;;;5007978;28;20097;-46
2021/06/14 12:57:56;;;;;;;21.25;12.02;;;27.30;28.30;;;;;;4993519;28;20164;-50
2021/06/14 13:00:29;;;;;;;15.10;6.57;;;27.30;27.90;;;;;;4974336;28;20033;-50